createdAt,value
2023-04-03T00:00:36.952Z,5.55
2023-04-03T00:03:03.873Z,7.32
2023-04-03T00:05:31.022Z,8.82
2023-04-03T00:07:57.822Z,8.63
2023-04-03T00:10:24.611Z,10.98
2023-04-03T00:12:51.310Z,6.03
2023-04-03T00:15:18.156Z,9.85
2023-04-03T00:17:44.872Z,12.93
2023-04-03T00:20:11.604Z,13.40
2023-04-03T00:22:38.438Z,9.25
2023-04-03T00:25:05.828Z,5.03
2023-04-03T00:27:35.134Z,7.47
2023-04-03T00:30:04.101Z,6.32
2023-04-03T00:32:35.599Z,8.52
2023-04-03T00:35:04.350Z,10.90
2023-04-03T00:37:31.809Z,6.80
2023-04-03T00:39:58.571Z,7.10
2023-04-03T00:42:25.628Z,5.80
2023-04-03T00:44:58.269Z,4.80
2023-04-03T00:47:26.305Z,9.82
2023-04-03T00:49:54.502Z,8.27
2023-04-03T00:52:26.528Z,8.60
2023-04-03T00:54:57.935Z,5.20
2023-04-03T00:57:25.501Z,5.75
2023-04-03T01:00:01.220Z,7.30
2023-04-03T01:02:28.282Z,9.27
2023-04-03T01:04:54.897Z,7.28
2023-04-03T01:07:25.486Z,9.50
2023-04-03T01:09:58.050Z,13.00
2023-04-03T01:14:57.927Z,6.60
2023-04-03T01:17:39.780Z,6.47
2023-04-03T01:20:36.853Z,7.88
2023-04-03T01:23:10.656Z,12.20
2023-04-03T01:25:43.945Z,9.15
2023-04-03T01:28:13.954Z,9.63
2023-04-03T01:31:04.324Z,8.43
2023-04-03T01:33:31.606Z,8.48
2023-04-03T01:35:58.441Z,13.15
2023-04-03T01:38:25.206Z,8.75
2023-04-03T01:40:52.017Z,3.42
2023-04-03T01:43:18.693Z,4.45
2023-04-03T01:45:45.712Z,7.43
2023-04-03T01:48:12.345Z,10.50
2023-04-03T01:50:39.207Z,7.68
2023-04-03T01:53:06.192Z,6.72
2023-04-03T01:55:32.839Z,6.25
2023-04-03T01:57:59.427Z,13.63
2023-04-03T02:00:26.093Z,8.68
2023-04-03T02:02:52.770Z,13.38
2023-04-03T02:05:19.621Z,6.05
2023-04-03T02:07:46.819Z,18.33
2023-04-03T02:10:13.843Z,6.22
2023-04-03T02:12:40.438Z,7.55
2023-04-03T02:15:07.577Z,11.65
2023-04-03T02:17:34.331Z,6.93
2023-04-03T02:20:03.274Z,14.05
2023-04-03T02:22:32.651Z,7.05
2023-04-03T02:25:04.028Z,14.57
2023-04-03T02:27:33.741Z,6.65
2023-04-03T02:30:01.543Z,10.50
2023-04-03T02:32:28.282Z,5.80
2023-04-03T02:34:56.846Z,11.02
2023-04-03T02:37:23.804Z,9.18
2023-04-03T02:39:53.944Z,11.93
2023-04-03T02:42:23.593Z,8.65
2023-04-03T02:44:50.271Z,4.90
2023-04-03T02:47:17.197Z,8.70
2023-04-03T02:49:47.040Z,7.80
2023-04-03T02:52:19.708Z,12.27
2023-04-03T02:54:46.650Z,6.22
2023-04-03T02:57:17.785Z,11.95
2023-04-03T02:59:47.465Z,12.38
2023-04-03T03:02:14.110Z,10.88
2023-04-03T03:04:40.892Z,10.88
2023-04-03T03:07:12.006Z,10.70
2023-04-03T03:09:48.284Z,13.13
2023-04-03T03:12:14.967Z,11.43
2023-04-03T03:14:44.066Z,15.00
2023-04-03T03:17:19.826Z,6.65
2023-04-03T03:19:48.920Z,10.57
2023-04-03T03:22:18.508Z,8.88
2023-04-03T03:24:45.311Z,9.43
2023-04-03T03:27:15.797Z,10.38
2023-04-03T03:29:42.503Z,11.35
2023-04-03T03:32:09.325Z,11.65
2023-04-03T03:34:35.983Z,6.97
2023-04-03T03:37:05.732Z,14.00
2023-04-03T03:39:34.241Z,7.57
2023-04-03T03:42:03.121Z,10.80
2023-04-03T03:44:32.662Z,10.18
2023-04-03T03:47:01.207Z,9.45
2023-04-03T03:49:36.450Z,9.45
2023-04-03T03:52:05.484Z,8.73
2023-04-03T03:54:32.107Z,7.47
2023-04-03T03:57:00.826Z,12.73
2023-04-03T03:59:29.582Z,9.15
2023-04-03T04:01:56.601Z,6.28
2023-04-03T04:04:23.446Z,11.35
2023-04-03T04:06:50.143Z,12.93
2023-04-03T04:09:16.823Z,6.45
2023-04-03T04:11:43.497Z,10.95
2023-04-03T04:14:14.521Z,11.13
2023-04-03T04:16:41.227Z,5.50
2023-04-03T04:19:08.941Z,13.70
2023-04-03T04:21:36.290Z,7.65
2023-04-03T04:24:02.980Z,18.13
2023-04-03T04:26:29.609Z,10.45
2023-04-03T04:28:56.348Z,13.25
2023-04-03T04:31:23.175Z,8.50
2023-04-03T04:33:49.902Z,12.50
2023-04-03T04:36:16.759Z,9.88
2023-04-03T04:38:43.456Z,9.45
2023-04-03T04:41:10.030Z,14.48
2023-04-03T04:43:37.102Z,7.38
2023-04-03T04:46:09.027Z,6.38
2023-04-03T04:48:37.369Z,18.80
2023-04-03T04:51:04.555Z,9.43
2023-04-03T04:53:31.576Z,12.90
2023-04-03T04:55:58.245Z,10.02
2023-04-03T04:58:24.993Z,14.43
2023-04-03T05:00:51.571Z,11.00
2023-04-03T05:03:18.161Z,7.50
2023-04-03T05:05:44.898Z,7.03
2023-04-03T05:08:11.666Z,7.05
2023-04-03T05:10:38.280Z,6.60
2023-04-03T05:13:04.904Z,10.45
2023-04-03T05:15:31.503Z,13.48
2023-04-03T05:17:58.151Z,11.98
2023-04-03T05:20:24.786Z,8.20
2023-04-03T05:22:51.418Z,6.13
2023-04-03T05:25:18.019Z,15.30
2023-04-03T05:27:44.837Z,14.40
2023-04-03T05:30:12.426Z,11.38
2023-04-03T05:32:39.064Z,12.40
2023-04-03T05:35:06.843Z,16.58
2023-04-03T05:37:33.989Z,6.95
2023-04-03T05:40:02.094Z,5.95
2023-04-03T05:42:28.757Z,15.30
2023-04-03T05:44:55.446Z,11.50
2023-04-03T05:47:22.076Z,14.95
2023-04-03T05:49:48.911Z,9.35
2023-04-03T05:52:27.194Z,9.85
2023-04-03T05:54:54.005Z,7.25
2023-04-03T05:57:22.391Z,10.18
2023-04-03T05:59:49.588Z,9.98
2023-04-03T06:02:20.091Z,42.65
2023-04-03T06:04:47.461Z,44.17
2023-04-03T06:07:20.521Z,50.88
2023-04-03T06:09:47.262Z,69.43
2023-04-03T06:12:14.017Z,38.00
2023-04-03T06:14:40.635Z,32.72
2023-04-03T06:17:07.318Z,37.63
2023-04-03T06:19:33.956Z,26.75
2023-04-03T06:22:01.246Z,14.88
2023-04-03T06:24:28.303Z,4.57
2023-04-03T06:26:55.083Z,13.30
2023-04-03T06:29:22.705Z,6.63
2023-04-03T06:31:51.866Z,9.05
2023-04-03T06:34:19.152Z,11.30
2023-04-03T06:36:46.246Z,5.43
2023-04-03T06:39:18.812Z,8.68
2023-04-03T06:41:45.676Z,9.50
2023-04-03T06:44:13.894Z,11.00
2023-04-03T06:46:40.875Z,6.32
2023-04-03T06:49:08.994Z,11.85
2023-04-03T06:51:36.673Z,8.18
2023-04-03T06:54:05.307Z,7.93
2023-04-03T06:56:31.992Z,8.05
2023-04-03T06:58:58.797Z,6.32
2023-04-03T07:01:28.774Z,11.02
2023-04-03T07:03:56.440Z,7.65
2023-04-03T07:06:23.831Z,3.92
2023-04-03T07:08:50.777Z,8.93
2023-04-03T07:11:18.032Z,6.05
2023-04-03T07:13:45.918Z,11.27
2023-04-03T07:16:15.941Z,10.45
2023-04-03T07:18:48.968Z,4.95
2023-04-03T07:21:18.222Z,5.95
2023-04-03T07:26:28.617Z,6.77
2023-04-03T07:29:01.613Z,8.90
2023-04-03T07:31:29.711Z,4.30
2023-04-03T07:33:56.470Z,7.90
2023-04-03T07:36:25.714Z,6.97
2023-04-03T07:38:54.256Z,8.00
2023-04-03T07:41:26.564Z,3.40
2023-04-03T07:46:28.083Z,4.45
2023-04-03T07:48:58.771Z,6.05
2023-04-03T07:51:29.647Z,5.72
2023-04-03T07:54:02.508Z,4.80
2023-04-03T07:56:32.009Z,4.05
2023-04-03T07:59:01.752Z,2.65
2023-04-03T08:01:31.662Z,7.03
2023-04-03T08:04:03.430Z,5.63
2023-04-03T08:06:45.948Z,5.72
2023-04-03T08:09:23.021Z,6.97
2023-04-03T08:11:51.258Z,6.15
2023-04-03T08:14:25.378Z,5.95
2023-04-03T08:16:52.377Z,7.60
2023-04-03T08:19:26.432Z,7.28
2023-04-03T08:21:57.800Z,5.43
2023-04-03T08:24:28.900Z,3.88
2023-04-03T08:26:57.757Z,5.30
2023-04-03T08:29:25.425Z,5.22
2023-04-03T08:31:55.946Z,6.63
2023-04-03T08:34:25.101Z,6.25
2023-04-03T08:36:54.198Z,5.68
2023-04-03T08:39:29.795Z,11.98
2023-04-03T08:42:02.483Z,6.68
2023-04-03T08:45:00.808Z,6.95
2023-04-03T08:47:43.111Z,5.28
2023-04-03T08:50:26.331Z,7.63
2023-04-03T08:53:01.823Z,3.50
2023-04-03T08:55:49.316Z,3.88
2023-04-03T09:01:19.768Z,6.07
2023-04-03T09:03:51.023Z,5.38
2023-04-03T09:06:26.136Z,6.00
2023-04-03T09:09:35.340Z,8.52
2023-04-03T09:12:19.490Z,7.10
2023-04-03T09:15:14.340Z,10.07
2023-04-03T09:18:30.449Z,7.07
2023-04-03T09:24:29.923Z,9.57
2023-04-03T09:27:33.185Z,8.95
2023-04-03T09:30:00.217Z,6.35
2023-04-03T09:32:33.011Z,3.78
2023-04-03T09:35:19.133Z,4.45
2023-04-03T09:37:50.548Z,9.05
2023-04-03T09:40:29.262Z,3.75
2023-04-03T09:43:01.621Z,5.93
2023-04-03T09:45:29.931Z,2.95
2023-04-03T09:48:19.060Z,6.97
2023-04-03T09:50:52.347Z,4.63
2023-04-03T09:53:33.977Z,5.05
2023-04-03T09:56:01.710Z,5.67
2023-04-03T09:58:50.245Z,3.13
2023-04-03T10:01:36.485Z,3.10
2023-04-03T10:04:16.757Z,2.63
2023-04-03T10:06:48.033Z,7.10
2023-04-03T10:09:29.888Z,6.30
2023-04-03T10:12:07.877Z,3.33
2023-04-03T10:14:39.838Z,5.55
2023-04-03T10:17:28.076Z,5.22
2023-04-03T10:20:00.777Z,8.60
2023-04-03T10:22:50.452Z,6.03
2023-04-03T10:25:45.358Z,3.65
2023-04-03T10:28:21.147Z,6.07
2023-04-03T10:30:53.773Z,5.97
2023-04-03T10:33:48.604Z,4.80
2023-04-03T10:36:45.129Z,4.80
2023-04-03T10:39:32.930Z,7.90
2023-04-03T10:42:17.104Z,3.88
2023-04-03T10:44:44.640Z,7.50
2023-04-03T10:47:20.962Z,3.75
2023-04-03T10:49:59.371Z,4.65
2023-04-03T10:52:44.219Z,3.70
2023-04-03T10:55:28.029Z,2.17
2023-04-03T10:58:01.958Z,6.47
2023-04-03T11:00:40.867Z,1.85
2023-04-03T11:03:14.991Z,3.38
2023-04-03T11:05:52.461Z,2.47
2023-04-03T11:08:32.251Z,2.15
2023-04-03T11:11:03.615Z,2.58
2023-04-03T11:13:52.171Z,2.00
2023-04-03T11:16:27.209Z,3.83
2023-04-03T11:19:03.435Z,2.15
2023-04-03T11:21:36.630Z,1.30
2023-04-03T11:24:15.074Z,1.42
2023-04-03T11:26:43.386Z,5.68
2023-04-03T11:29:24.860Z,3.90
2023-04-03T11:32:06.698Z,4.82
2023-04-03T11:34:41.293Z,2.55
2023-04-03T11:37:16.920Z,5.63
2023-04-03T11:39:56.036Z,4.30
2023-04-03T11:42:41.931Z,3.50
2023-04-03T11:45:27.692Z,5.53
2023-04-03T11:47:57.351Z,3.88
2023-04-03T11:50:45.176Z,4.88
2023-04-03T11:53:14.712Z,8.68
2023-04-03T11:55:50.017Z,2.90
2023-04-03T11:58:21.268Z,5.45
2023-04-03T12:00:57.688Z,4.28
2023-04-03T12:03:24.926Z,1.73
2023-04-03T12:05:52.855Z,2.72
2023-04-03T12:08:28.669Z,3.40
2023-04-03T12:11:10.423Z,3.10
2023-04-03T12:13:55.820Z,3.88
2023-04-03T12:16:28.509Z,2.08
2023-04-03T12:18:55.489Z,3.58
2023-04-03T12:21:22.764Z,2.78
2023-04-03T12:24:08.119Z,2.05
2023-04-03T12:27:12.301Z,4.95
2023-04-03T12:29:54.076Z,4.75
2023-04-03T12:33:12.594Z,3.15
2023-04-03T12:35:53.215Z,3.60
2023-04-03T12:38:47.154Z,3.58
2023-04-03T12:41:22.405Z,7.60
2023-04-03T12:43:57.942Z,3.22
2023-04-03T12:46:39.654Z,7.78
2023-04-03T12:49:23.603Z,3.58
2023-04-03T12:51:51.213Z,4.35
2023-04-03T12:54:24.392Z,2.53
2023-04-03T12:56:52.189Z,5.60
2023-04-03T12:59:23.345Z,5.38
2023-04-03T13:02:01.230Z,2.00
2023-04-03T13:04:29.000Z,3.70
2023-04-03T13:06:55.853Z,4.88
2023-04-03T13:09:24.546Z,5.40
2023-04-03T13:11:58.915Z,2.70
2023-04-03T13:14:29.173Z,3.35
2023-04-03T13:17:03.809Z,2.67
2023-04-03T13:19:31.075Z,5.15
2023-04-03T13:22:06.154Z,8.00
2023-04-03T13:24:37.751Z,4.55
2023-04-03T13:27:07.759Z,2.88
2023-04-03T13:29:38.287Z,2.00
2023-04-03T13:32:07.178Z,2.85
2023-04-03T13:34:43.393Z,1.25
2023-04-03T13:37:29.425Z,3.60
2023-04-03T13:40:01.194Z,2.10
2023-04-03T13:42:31.602Z,3.20
2023-04-03T13:45:29.517Z,4.32
2023-04-03T13:48:23.352Z,7.57
2023-04-03T13:51:03.830Z,5.78
2023-04-03T13:53:33.100Z,4.57
2023-04-03T13:55:59.881Z,4.97
2023-04-03T13:58:30.047Z,2.15
2023-04-03T14:01:00.648Z,9.32
2023-04-03T14:03:32.822Z,4.68
2023-04-03T14:06:07.104Z,4.07
2023-04-03T14:08:42.855Z,4.70
2023-04-03T14:11:15.520Z,3.65
2023-04-03T14:13:46.040Z,2.33
2023-04-03T14:16:22.886Z,4.78
2023-04-03T14:18:51.242Z,1.75
2023-04-03T14:21:21.009Z,2.75
2023-04-03T14:23:48.877Z,8.93
2023-04-03T14:26:19.259Z,3.88
2023-04-03T14:28:52.440Z,5.63
2023-04-03T14:31:30.309Z,4.80
2023-04-03T14:33:57.143Z,4.50
2023-04-03T14:36:28.703Z,4.75
2023-04-03T14:38:56.983Z,4.45
2023-04-03T14:41:25.958Z,4.97
2023-04-03T14:43:53.428Z,4.90
2023-04-03T14:46:55.695Z,1.77
2023-04-03T14:49:27.342Z,4.00
2023-04-03T14:51:54.074Z,4.72
2023-04-03T14:54:26.610Z,3.13
2023-04-03T14:56:54.775Z,3.67
2023-04-03T14:59:22.802Z,2.78
2023-04-03T15:01:50.041Z,3.03
2023-04-03T15:04:19.571Z,3.90
2023-04-03T15:06:48.178Z,3.30
2023-04-03T15:09:26.583Z,1.65
2023-04-03T15:11:55.460Z,2.67
2023-04-03T15:14:35.838Z,3.40
2023-04-03T15:17:09.762Z,4.05
2023-04-03T15:19:40.638Z,6.03
2023-04-03T15:22:07.820Z,6.22
2023-04-03T15:24:34.578Z,2.97
2023-04-03T15:27:07.620Z,4.25
2023-04-03T15:29:38.889Z,4.72
2023-04-03T15:32:06.038Z,4.38
2023-04-03T15:34:32.794Z,4.68
2023-04-03T15:36:59.672Z,6.00
2023-04-03T15:39:27.500Z,7.00
2023-04-03T15:41:55.639Z,2.90
2023-04-03T15:44:23.010Z,7.53
2023-04-03T15:46:52.411Z,3.85
2023-04-03T15:49:22.058Z,8.05
2023-04-03T15:51:48.703Z,6.38
2023-04-03T15:54:16.394Z,3.17
2023-04-03T15:56:43.016Z,6.68
2023-04-03T15:59:10.337Z,3.35
2023-04-03T16:01:38.649Z,6.70
2023-04-03T16:04:06.551Z,2.08
2023-04-03T16:06:34.406Z,6.03
2023-04-03T16:09:01.843Z,10.90
2023-04-03T16:11:28.839Z,5.07
2023-04-03T16:13:56.138Z,4.00
2023-04-03T16:16:24.579Z,3.95
2023-04-03T16:18:51.817Z,2.90
2023-04-03T16:21:18.784Z,4.28
2023-04-03T16:23:46.097Z,6.53
2023-04-03T16:26:18.658Z,6.75
2023-04-03T16:28:45.445Z,4.13
2023-04-03T16:31:12.182Z,5.07
2023-04-03T16:33:38.878Z,5.97
2023-04-03T16:36:06.169Z,3.72
2023-04-03T16:38:33.184Z,1.55
2023-04-03T16:41:13.249Z,4.40
2023-04-03T16:46:11.834Z,3.13
2023-04-03T16:48:42.170Z,4.00
2023-04-03T16:51:08.970Z,6.15
2023-04-03T16:53:36.815Z,4.22
2023-04-03T16:56:03.585Z,9.00
2023-04-03T16:58:32.737Z,4.07
2023-04-03T17:00:59.416Z,5.85
2023-04-03T17:03:27.020Z,4.63
2023-04-03T17:05:53.805Z,4.97
2023-04-03T17:08:20.490Z,2.85
2023-04-03T17:10:47.914Z,4.70
2023-04-03T17:13:15.661Z,5.35
2023-04-03T17:15:42.681Z,8.45
2023-04-03T17:18:09.636Z,10.57
2023-04-03T17:20:39.118Z,4.85
2023-04-03T17:23:06.495Z,4.43
2023-04-03T17:25:33.409Z,4.18
2023-04-03T17:28:00.060Z,3.75
2023-04-03T17:30:26.898Z,5.13
2023-04-03T17:32:53.878Z,4.53
2023-04-03T17:35:20.911Z,2.25
2023-04-03T17:37:50.488Z,4.93
2023-04-03T17:40:18.748Z,6.18
2023-04-03T17:42:46.015Z,3.58
2023-04-03T17:45:13.124Z,4.90
2023-04-03T17:47:39.956Z,5.20
2023-04-03T17:50:07.416Z,6.88
2023-04-03T17:52:34.331Z,6.93
2023-04-03T17:55:01.302Z,4.80
2023-04-03T17:57:28.038Z,5.10
2023-04-03T17:59:55.257Z,7.70
2023-04-03T18:02:22.073Z,8.98
2023-04-03T18:04:57.622Z,7.43
2023-04-03T18:07:25.171Z,10.10
2023-04-03T18:09:52.788Z,8.38
2023-04-03T18:12:19.937Z,6.75
2023-04-03T18:14:46.854Z,19.20
2023-04-03T18:17:13.784Z,38.65
2023-04-03T18:19:40.469Z,24.48
2023-04-03T18:22:13.567Z,32.53
2023-04-03T18:24:41.662Z,6.22
2023-04-03T18:27:17.668Z,50.28
2023-04-03T18:29:48.509Z,28.20
2023-04-03T18:32:18.068Z,28.35
2023-04-03T18:34:45.146Z,6.70
2023-04-03T18:37:11.821Z,10.23
2023-04-03T18:39:39.869Z,27.27
2023-04-03T18:42:13.062Z,28.90
2023-04-03T18:44:43.071Z,8.52
2023-04-03T18:47:09.710Z,48.58
2023-04-03T18:49:39.522Z,19.42
2023-04-03T18:52:06.347Z,13.98
2023-04-03T18:54:33.193Z,6.88
2023-04-03T18:56:59.929Z,9.60
2023-04-03T18:59:30.708Z,8.18
2023-04-03T19:01:57.654Z,9.50
2023-04-03T19:04:24.827Z,4.53
2023-04-03T19:06:53.502Z,8.52
2023-04-03T19:09:27.775Z,9.05
2023-04-03T19:12:02.450Z,11.07
2023-04-03T19:14:34.707Z,13.88
2023-04-03T19:17:06.036Z,5.93
2023-04-03T19:19:33.307Z,12.35
2023-04-03T19:22:02.670Z,13.98
2023-04-03T19:24:37.241Z,5.85
2023-04-03T19:27:04.654Z,11.73
2023-04-03T19:29:31.296Z,10.25
2023-04-03T19:32:03.503Z,9.32
2023-04-03T19:34:34.844Z,12.15
2023-04-03T19:37:22.222Z,6.20
2023-04-03T19:42:50.367Z,5.82
2023-04-03T19:45:28.995Z,16.55
2023-04-03T19:48:04.831Z,12.10
2023-04-03T19:50:35.706Z,16.48
2023-04-03T19:53:11.546Z,13.98
2023-04-03T19:55:42.298Z,8.43
2023-04-03T19:58:12.112Z,8.48
2023-04-03T20:00:41.915Z,8.77
2023-04-03T20:03:14.401Z,10.60
2023-04-03T20:05:50.438Z,14.48
2023-04-03T20:08:29.530Z,20.80
2023-04-03T20:11:07.267Z,10.38
2023-04-03T20:13:47.770Z,9.90
2023-04-03T20:16:14.692Z,11.38
2023-04-03T20:18:42.076Z,9.73
2023-04-03T20:21:10.326Z,34.47
2023-04-03T20:23:37.528Z,6.47
2023-04-03T20:26:11.183Z,7.03
2023-04-03T20:28:42.627Z,6.32
2023-04-03T20:31:10.082Z,12.40
2023-04-03T20:33:37.681Z,29.23
2023-04-03T20:36:04.598Z,13.65
2023-04-03T20:38:31.396Z,15.98
2023-04-03T20:41:03.822Z,6.60
2023-04-03T20:46:10.910Z,11.82
2023-04-03T20:48:47.302Z,8.77
2023-04-03T20:51:35.088Z,7.43
2023-04-03T20:54:08.333Z,10.10
2023-04-03T20:57:15.794Z,6.15
2023-04-03T21:00:01.995Z,5.82
2023-04-03T21:02:33.735Z,9.57
2023-04-03T21:05:13.225Z,9.50
2023-04-03T21:08:27.725Z,7.43
2023-04-03T21:11:34.653Z,7.93
2023-04-03T21:14:42.402Z,11.95
2023-04-03T21:17:14.657Z,9.70
2023-04-03T21:19:56.437Z,7.43
2023-04-03T21:22:33.840Z,15.38
2023-04-03T21:25:06.790Z,13.48
2023-04-03T21:27:43.874Z,6.68
2023-04-03T21:30:25.934Z,12.50
2023-04-03T21:33:02.085Z,14.43
2023-04-03T21:35:35.207Z,42.47
2023-04-03T21:38:07.754Z,47.20
2023-04-03T21:40:34.623Z,20.05
2023-04-03T21:43:02.129Z,20.00
2023-04-03T21:45:29.651Z,11.95
2023-04-03T21:47:56.365Z,18.35
2023-04-03T21:50:23.456Z,43.42
2023-04-03T21:52:53.542Z,21.95
2023-04-03T21:55:20.146Z,41.83
2023-04-03T21:57:52.457Z,8.07
2023-04-03T22:00:36.046Z,16.17
2023-04-03T22:03:30.352Z,17.38
2023-04-03T22:07:01.930Z,9.32
2023-04-03T22:10:19.084Z,10.35
2023-04-03T22:13:01.570Z,17.67
2023-04-03T22:15:38.257Z,12.88
2023-04-03T22:18:19.919Z,12.77
2023-04-03T22:21:00.846Z,7.63
2023-04-03T22:23:40.060Z,7.75
2023-04-03T22:26:51.837Z,5.30
2023-04-03T22:29:41.374Z,4.50
2023-04-03T22:32:33.342Z,7.53
2023-04-03T22:35:06.972Z,6.47
2023-04-03T22:37:47.372Z,9.13
2023-04-03T22:40:41.992Z,10.52
2023-04-03T22:46:07.440Z,4.90
2023-04-03T22:49:06.394Z,10.73
2023-04-03T22:51:41.143Z,6.05
2023-04-03T22:55:09.365Z,7.90
2023-04-03T22:57:48.046Z,6.47
2023-04-03T23:00:16.739Z,7.30
2023-04-03T23:02:43.522Z,13.68
2023-04-03T23:05:10.345Z,10.57
2023-04-03T23:07:37.346Z,5.50
2023-04-03T23:10:04.943Z,9.38
2023-04-03T23:12:37.412Z,5.65
2023-04-03T23:17:31.698Z,5.95
2023-04-03T23:19:58.859Z,10.00
2023-04-03T23:22:25.548Z,11.13
2023-04-03T23:24:52.201Z,4.22
2023-04-03T23:27:19.167Z,8.10
2023-04-03T23:29:45.808Z,11.52
2023-04-03T23:32:12.540Z,6.82
2023-04-03T23:34:39.227Z,5.05
2023-04-03T23:37:06.544Z,10.20
2023-04-03T23:39:33.337Z,7.70
2023-04-03T23:41:59.968Z,7.05
2023-04-03T23:44:26.606Z,4.50
2023-04-03T23:46:53.354Z,7.15
2023-04-03T23:49:20.044Z,8.60
2023-04-03T23:51:46.667Z,12.82
2023-04-03T23:54:13.308Z,6.55
2023-04-03T23:56:40.012Z,7.90
2023-04-03T23:59:06.917Z,8.82
